Weaubleau, Missouri
Current Conditions -  °F | °C
As of 11:15 AM on Saturday 25 Oct 2014 (Local Time) from KGLY Reporting Station
Haze Haze  
Wind Chill: 70°   Ceiling: Unl
Heat Index: 70°   Visibility: 5mi
Dew Point: 63°   Wind: 0mph
Humidity: 78%   Direction: NA
Pressure: 30.09"   Gusts: NA
Location:  37.89°N, 93.54°W
Report Text: KGLY 251615Z AUTO 00000KT 5SM HZ CLR 21/17 A3009 RMK AO2
Loading
Personal Weather Stations






























Interactive Weather Map
Tropical Storm Tracking
New forecast layout! Learn more

10-Day Weather Forecast

Advertisements
Track Severe Weather on mobile